Tiempo atmosférico en la estación meteorológica de Ferrol, A Coruña (4 m.)



Fecha
DESCASC
Temp. máxima en grados centígrados (hora)
DESCASC
Temp. mínima en grados centígrados (hora)
DESCASC
Temp. media en grados centígrados
DESCASC
Racha de viento máxima en m/sg (hora)
DESCASC
Velocidad máxima media en intervalos de 10 minutos(hora)
DESCASC
Precipitaciones diarias en mm
DESCASC
Precipitaciones de 00:00 a 06:00 en mm
DESCASC
Precipitaciones de 06:00 a 12:00 en mm
DESCASC
Precipitaciones de 12:00 a 18:00 en mm
DESCASC
Precipitaciones de 18:00 a 24:00 en mm
DESCASC
19-01-2020 12.2 (15:00) 9 (19:40) 10.6 15.56 (22:30) 9.17 (12:40) 0.5 0.3 0.1 0 0.1
18-01-2020 14 (14:40) 7.9 (01:20) 11 12.22 (08:30) 8.06 (08:30) 9.4 0 4.8 2.2 2.4
17-01-2020 -- (--) -- (--) -- -- (--) -- (--) -- -- -- 0 0.1
16-01-2020 -- (--) -- (--) -- -- (--) -- (--) -- 1 12.2 32.2 --
15-01-2020 16 (00:30) 8.8 (00:00) 12.4 18.61 (02:50) 12.22 (02:50) 6.6 6.1 0.4 0 0.1
14-01-2020 16.2 (16:00) 12.4 (00:00) 14.3 18.89 (22:30) 12.5 (11:40) 0 0 0 0 0
13-01-2020 13.2 (15:20) 9.7 (00:00) 11.4 20.56 (16:00) 12.5 (16:10) 0.1 0.1 0 0 0
12-01-2020 11.8 (20:50) 5.2 (00:00) 8.5 5.28 (00:30) 3.61 (15:00) 0.1 0.1 0 0 0
11-01-2020 14.3 (15:30) 2.2 (00:00) 8.3 5.83 (16:10) 3.33 (16:10) 0.1 0 0.1 0 0
10-01-2020 13.8 (15:10) 5.2 (00:00) 9.5 5 (01:20) 2.5 (17:20) 0.5 0.1 0.3 0.1 0
09-01-2020 14.6 (10:30) 8.7 (00:00) 11.7 11.39 (12:20) 6.94 (09:10) 2.3 0 0.7 1.5 0.1
08-01-2020 15.5 (15:10) 11.3 (00:00) 13.4 7.5 (22:50) 4.17 (23:20) 0.2 0.1 0 0.1 0
07-01-2020 -- (--) -- (--) -- -- (--) -- (--) -- -- -- -- 0.2
06-01-2020 -- (--) -- (--) -- -- (--) -- (--) -- -- -- -- --
05-01-2020 -- (--) -- (--) -- -- (--) -- (--) -- -- -- -- --
04-01-2020 -- (--) -- (--) -- -- (--) -- (--) -- -- -- -- --
03-01-2020 -- (--) -- (--) -- -- (--) -- (--) -- -- -- -- --
02-01-2020 -- (--) -- (--) -- -- (--) -- (--) -- -- -- -- --
01-01-2020 -- (--) -- (--) -- -- (--) -- (--) -- -- -- -- --
31-12-2019 -- (--) -- (--) -- -- (--) -- (--) -- -- -- -- --
30-12-2019 -- (--) -- (--) -- -- (--) -- (--) -- -- -- -- --
29-12-2019 -- (--) -- (--) -- -- (--) -- (--) -- -- -- -- --
28-12-2019 -- (--) -- (--) -- -- (--) -- (--) -- -- -- -- --
27-12-2019 -- (--) -- (--) -- -- (--) -- (--) -- -- -- -- --
26-12-2019 -- (--) -- (--) -- -- (--) -- (--) -- -- -- -- --
25-12-2019 -- (--) -- (--) -- -- (--) -- (--) -- -- -- -- --
24-12-2019 -- (--) -- (--) -- -- (--) -- (--) -- -- -- -- --

Gráficas

Temp. máximas Temp. mínimas Temp. medias Precipitaciones Rachas de viento máximas Velocidades máximas media en intervalos de 10 minutos

Datos horarios

Fecha y hora oficial Temperatura (ºC) Velocidad del viento (km/h) Dirección del viento Racha (km/h) Dirección de racha Precipitación (mm) Presión (hPa) Tendencia (hPa) Humedad (%)
2020-01-22 09:00:00 11.9 18 Nordeste 39 Nordeste 0 1023.5 0 80
2020-01-22 08:00:00 11.9 19 Nordeste 35 Nordeste 0 1023.6 -0.1 80
2020-01-22 07:00:00 12.1 17 Nordeste 36 Nordeste 0 1023.4 -1.2 78
2020-01-22 06:00:00 12 17 Nordeste 38 Nordeste 0 1023.5 -1.2 79
2020-01-22 05:00:00 11.4 19 Nordeste 39 Nordeste 0 1023.7 -1.7 80
2020-01-22 04:00:00 10.9 16 Nordeste 29 Nordeste 0 1024.6 -1.3 82
2020-01-22 03:00:00 10.3 16 Nordeste 32 Nordeste 0 1024.7 -1.2 83
2020-01-22 02:00:00 10 22 Nordeste 44 Nordeste 0 1025.4 -0.8 83
2020-01-22 01:00:00 9.6 19 Nordeste 41 Nordeste 0 1025.9 -0.1 82
2020-01-22 00:00:00 9.7 27 Nordeste 49 Nordeste 0 1025.9 -0.5 82
2020-01-21 23:00:00 9.6 27 Nordeste 49 Nordeste 0 1026.2 0 82
2020-01-21 22:00:00 9.9 30 Nordeste 45 Nordeste 0 1026 -0.4 78
2020-01-21 21:00:00 9.7 25 Nordeste 48 Nordeste 0 1026.4 0.7 80
2020-01-21 20:00:00 9.7 21 Nordeste 50 Nordeste 0 1026.2 0 77
2020-01-21 19:00:00 10.1 31 Nordeste 51 Nordeste 0 1026.4 0.1 73
2020-01-21 18:00:00 9.7 30 Nordeste 50 Nordeste 0 1025.7 -1.4 71
2020-01-21 17:00:00 9.7 24 Nordeste 48 Nordeste 0 1026.2 -2.1 72
2020-01-21 16:00:00 9.7 27 Nordeste 50 Nordeste 0 1026.3 -2.2 71
2020-01-21 15:00:00 9.8 25 Nordeste 46 Nordeste 0 1027.1 -2.7 69
2020-01-21 14:00:00 9.8 34 Nordeste 52 Nordeste 0 1028.3 -1.4 71
2020-01-21 13:00:00 10.4 28 Nordeste 45 Nordeste 0 1028.5 -1.1 70
2020-01-21 12:00:00 10 31 Nordeste 51 Norte 0 1029.8 -0.1 70
2020-01-21 11:00:00 9.7 27 Nordeste 42 Nordeste 0 1029.7 -0.2 73
2020-01-21 10:00:00 8.9 21 Nordeste 50 Nordeste 0 1029.6 -0.3 78
2020-01-21 09:00:00 8.9 26 Nordeste 45 Nordeste 0 1029.9 -0.1 78
2020-01-21 08:00:00 8.9 26 Nordeste 44 Nordeste 0 1029.9 -0.6 77
2020-01-21 07:00:00 8.9 21 Nordeste 47 Nordeste 0 1029.9 -1 78
2020-01-21 06:00:00 8.6 25 Nordeste 40 Nordeste 0 1030 -1.1 79
2020-01-21 05:00:00 8.5 24 Nordeste 39 Nordeste 0 1030.5 -0.8 78
2020-01-21 04:00:00 8.2 21 Nordeste 41 Nordeste 0.1 1030.9 -1 77
2020-01-21 03:00:00 8.4 27 Nordeste 42 Nordeste 0 1031.1 -0.8 71
2020-01-21 02:00:00 8.5 19 Nordeste 42 Nordeste 0 1031.3 -1 64
2020-01-21 01:00:00 8.5 19 Nordeste 48 Nordeste 0 1031.9 0 60
2020-01-21 00:00:00 8.6 27 Nordeste 47 Nordeste 0 1031.9 -0.1 60
2020-01-20 23:00:00 8.6 21 Nordeste 60 Este 0 1032.3 0.2 59
2020-01-20 22:00:00 8.3 24 Nordeste 47 Este 0 1031.9 0 59
2020-01-20 21:00:00 8.5 28 Este 54 Este 0.1 1032 0.6 58
2020-01-20 20:00:00 8.6 25 Este 63 Nordeste 0 1032.1 0 60
2020-01-20 19:00:00 8.7 21 Nordeste 59 Este 0 1031.9 -0.1 64
2020-01-20 18:00:00 9.3 28 Nordeste 65 Nordeste 0 1031.4 -1.5 60
2020-01-20 17:00:00 9.7 24 Nordeste 63 Nordeste 0 1032.1 -1.7 59
2020-01-20 16:00:00 10 23 Nordeste 51 Nordeste 0 1032 -2.6 58
2020-01-20 15:00:00 10 27 Nordeste 52 Nordeste 0 1032.9 -2.1 57
2020-01-20 14:00:00 9.7 21 Nordeste 56 Nordeste 0 1033.8 -1.6 60
2020-01-20 13:00:00 10.5 26 Nordeste 61 Este 0 1034.6 -0.5 54
2020-01-20 12:00:00 9.5 24 Nordeste 47 Nordeste 0 1035 0 63
2020-01-20 11:00:00 8 23 Nordeste 50 Este 0 1035.4 0.2 78
2020-01-20 10:00:00 8.4 18 Nordeste 46 Este 0.1 1035.1 0.4 67
2020-01-20 09:00:00 8.3 19 Nordeste 37 Este 0 1035 0.6 71
2020-01-20 08:00:00 8 22 Nordeste 53 Nordeste 0 1035.2 0.3 74
2020-01-20 07:00:00 8.4 23 Nordeste 50 Nordeste 0 1034.7 -1 68
2020-01-20 06:00:00 9.2 27 Nordeste 50 Este 0 1034.4 -1.6 62
2020-01-20 05:00:00 9.2 27 Nordeste 53 Nordeste 0 1034.9 -1.8 66
2020-01-20 04:00:00 9 26 Nordeste 50 Nordeste 0 1035.7 -1.6 66
2020-01-20 03:00:00 8.8 24 Nordeste 50 Nordeste 0 1036 -1 71
2020-01-20 02:00:00 9.5 26 Nordeste 44 Este 0 1036.7 -0.3 60
2020-01-20 01:00:00 9.4 27 Nordeste 47 Nordeste 0 1037.3 0.7 60
2020-01-20 00:00:00 9.4 20 Nordeste 44 Nordeste 0 1037 0.3 62
2020-01-19 23:00:00 9.2 27 Nordeste 56 Nordeste 0 1037 0.3 62
2020-01-19 22:00:00 9.1 23 Nordeste 51 Nordeste 0.1 1036.6 0.5 62
2020-01-19 21:00:00 9.1 23 Nordeste 45 Nordeste 0 1036.7 0.9 64
2020-01-19 20:00:00 9.3 27 Nordeste 44 Nordeste 0 1036.7 1.5 62
2020-01-19 19:00:00 9.3 21 Nordeste 42 Nordeste 0 1036.1 0.9 63
2020-01-19 18:00:00 10 24 Nordeste 45 Nordeste 0 1035.8 1 63
2020-01-19 17:00:00 10.7 21 Este 51 Nordeste 0 1035.2 0 60
2020-01-19 16:00:00 11.5 29 Nordeste 53 Este 0 1035.2 -0.6 56
2020-01-19 15:00:00 12.2 26 Este 49 Nordeste 0 1034.8 -0.9 57
2020-01-19 14:00:00 11.6 28 Nordeste 46 Nordeste 0 1035.2 0.3 60
2020-01-19 13:00:00 11.4 27 Este 48 Nordeste 0 1035.8 1.3 66
2020-01-19 12:00:00 11.2 27 Nordeste 47 Nordeste 0 1035.7 2.3 68
2020-01-19 11:00:00 10.9 25 Nordeste 41 Nordeste 0.1 1034.9 2.6 72
2020-01-19 10:00:00 10.2 27 Nordeste 39 Nordeste 0 1034.5 3.3 74
2020-01-19 09:00:00 9.8 24 Nordeste 42 Nordeste 0 1033.4 2.7 71
2020-01-19 08:00:00 9.7 26 Nordeste 42 Nordeste 0 1032.3 2.7 75
2020-01-19 07:00:00 10 24 Nordeste 44 Nordeste 0 1031.2 2.7 82
2020-01-19 06:00:00 10.1 26 Nordeste 48 Nordeste 0 1030.7 3.2 84
2020-01-19 05:00:00 10.2 24 Nordeste 50 Nordeste 0 1029.6 2.6 84
2020-01-19 04:00:00 10.3 25 Nordeste 41 Nordeste 0 1028.5 2.8 88
2020-01-19 03:00:00 10.3 27 Nordeste 49 Nordeste 0.1 1027.5 2.7 93
2020-01-19 02:00:00 10.5 31 Nordeste 51 Nordeste 0 1027 3.2 93
2020-01-19 01:00:00 10.9 27 Norte 45 Nordeste 0.2 1025.7 2.8 93
2020-01-19 00:00:00 10.6 16 Norte 31 Nordeste 0 1024.8 3 91
2020-01-18 23:00:00 10.6 11 Norte 22 Norte 0 1023.8 3.2 93
2020-01-18 22:00:00 10.5 10 Norte 22 Norte 0 1022.9 2.7 94
2020-01-18 21:00:00 10.4 7 Norte 21 Noroeste 0.4 1021.8 2.4 95
2020-01-18 20:00:00 11 3 Noroeste 16 Norte 0.1 1020.6 1.2 95
2020-01-18 19:00:00 10.9 5 Sur 25 Noroeste 1.9 1020.2 0.7 94
2020-01-18 18:00:00 11.2 8 Sur 23 Sudoeste 0.4 1019.4 0.7 91
2020-01-18 17:00:00 11.9 9 Sur 28 Sur 0.1 1019.4 0.1 92
2020-01-18 16:00:00 10.2 3 Este 36 Norte 1.7 1019.5 0.6 91
2020-01-18 15:00:00 13.7 12 Sur 28 Sudoeste 0 1018.7 0.2 78
2020-01-18 14:00:00 13.1 5 Norte 30 Norte 0 1019.3 1.5 80
2020-01-18 13:00:00 11.6 12 Norte 44 Norte 0 1018.9 0.9 91
2020-01-18 12:00:00 12.9 10 Sur 36 Sudoeste 4.1 1018.5 0.1 95
2020-01-18 11:00:00 12.2 22 Sudoeste 41 Sudoeste 0.3 1017.8 -0.4 93
2020-01-18 10:00:00 12.2 18 Sudoeste 35 Sudoeste 0 1018 -1.3 84
2020-01-18 09:00:00 12.1 26 Sudoeste 44 Sudoeste 0 1018.4 -2.5 80
2020-01-18 08:00:00 11.6 18 Sudoeste 26 Sudoeste 0.1 1018.2 -3.4 77
2020-01-18 07:00:00 11 6 Sudoeste 23 Sudoeste 0.3 1019.3 -3.7 78
2020-01-18 06:00:00 11.1 16 Sudoeste 25 Sudoeste 0 1020.9 -3.5 71
2020-01-18 05:00:00 10.8 7 Sudoeste 16 Sudoeste 0 1021.6 -3.4 69
2020-01-18 04:00:00 8.3 3 Norte 8 Norte 0 1023 -3.1 93
2020-01-18 03:00:00 8.4 0 Calma 8 Sudoeste 0 1024.4 -2.9 93
2020-01-18 02:00:00 8.5 0 Calma 7 Sudoeste 0 1025 -3.3 90
2020-01-18 01:00:00 8.2 3 Norte 14 Sudoeste 0 1026.1 -2.8 89
2020-01-18 00:00:00 9.8 9 Sudoeste 17 Sudoeste 0 1027.3 -2.1 82
2020-01-17 23:00:00 9.2 8 Sudoeste 13 Sudoeste 0 1028.3 -1.6 89
2020-01-17 22:00:00 8.3 0 Calma 4 Norte 0.1 1028.9 -1 94
2020-01-17 21:00:00 8.5 0 Calma 7 Nordeste 0 1029.4 -0.5 94
2020-01-17 20:00:00 8.7 2 Norte 5 Norte 0 1029.9 -0.1 93
2020-01-17 19:00:00 9 0 Calma 4 Noroeste 0 1029.9 -0.2 92
2020-01-17 18:00:00 9.7 0 Calma 8 Sur 0 1029.9 -0.4 88
2020-01-17 17:00:00 10.9 7 Sudoeste 14 Sudoeste 0 1030 -0.2 79
2020-01-17 16:00:00 11.6 4 Sur 26 Sudoeste 0 1030.1 -0.4 69
2020-01-17 15:00:00 12.3 12 Sudoeste 30 Sudoeste 0 1030.3 -0.3 75
2020-01-17 14:00:00 12.3 18 Sudoeste 28 Sudoeste 0 1030.2 0.2 75
2020-01-17 13:00:00 11.4 5 Sudoeste 17 Sur 0 1030.5 1.8 87
2020-01-17 12:00:00 10.1 8 Sur 17 Sur 0.1 1030.6 2.6 93
2020-01-17 11:00:00 8.3 12 Sudoeste 22 Sur 1.4 1030 3.3 95
2020-01-17 10:00:00 8.2 5 Sudoeste 15 Sudoeste 3.1 1028.7 -- 95
2020-01-17 09:00:00 8.2 6 Sudoeste 18 Sudoeste 2.1 1028 -- 94
2020-01-17 08:00:00 8.7 15 Sudoeste -- -- -- 1026.7 -- 94
2020-01-17 07:00:00 -- -- -- -- -- -- -- -- --
2020-01-17 06:00:00 -- -- -- -- -- -- -- -- --
2020-01-17 05:00:00 -- -- -- -- -- -- -- -- --
2020-01-17 04:00:00 -- -- -- -- -- -- -- -- --
2020-01-17 03:00:00 -- -- -- -- -- -- -- -- --
2020-01-17 02:00:00 -- -- -- -- -- -- -- -- --
2020-01-17 01:00:00 -- -- -- -- -- -- -- -- --
2020-01-17 00:00:00 -- -- -- -- -- -- -- -- --
2020-01-16 23:00:00 -- -- -- -- -- -- -- -- --
2020-01-16 22:00:00 10.6 20 Sudoeste 29 Sudoeste 0.1 1018.2 2.2 95
2020-01-16 21:00:00 10.3 16 Sudoeste 28 Sudoeste 0 1017.6 1.8 95
2020-01-16 20:00:00 9.6 9 Sudoeste 18 Sudoeste 0 1016.8 2.4 95
2020-01-16 19:00:00 9.5 3 Oeste 30 Sur 0 1016 1.8 95
2020-01-16 18:00:00 11 20 Sudoeste 30 Sudoeste 2.5 1015.8 2.9 95
2020-01-16 17:00:00 11.3 15 Sudoeste 30 Sur 6 1014.4 0 95
2020-01-16 16:00:00 11.3 12 Sudoeste 37 Sudoeste 5.6 1014.2 0.5 95
2020-01-16 15:00:00 11.5 9 Sudoeste 26 Sudoeste 4.8 1012.9 -0.2 95
2020-01-16 14:00:00 11.9 13 Sur 49 Sudoeste 4.9 1014.4 0.8 94
2020-01-16 13:00:00 13.4 35 Sudoeste 61 Sur 8.4 1013.7 0.3 90
2020-01-16 12:00:00 13.5 13 Sudoeste 46 Sudoeste 9.7 1013.1 0.1 93
2020-01-16 11:00:00 14.7 18 Sudoeste 45 Sudoeste 1.4 1013.6 1.1 89
2020-01-16 10:00:00 14.9 30 Sudoeste 57 Sudoeste 0.8 1013.4 1.2 87
2020-01-16 09:00:00 16.1 37 Sudoeste 60 Sudoeste 0 1013 0.7 78
2020-01-16 08:00:00 15.3 36 Sudoeste 75 Sur 0.2 1012.5 -0.6 84
2020-01-16 07:00:00 15.7 38 Sudoeste 69 Sudoeste 0.1 1012.2 -1.8 83
2020-01-16 06:00:00 16.2 44 Sudoeste 72 Sudoeste 0 1012.3 -1.9 82
2020-01-16 05:00:00 15.3 30 Sudoeste 48 Sudoeste 1 1013.1 -2.1 90
2020-01-16 04:00:00 14.6 23 Sudoeste 38 Sur 0 1014 -1.6 89
2020-01-16 03:00:00 14.9 19 Sur 33 Sur 0 1014.2 -2.3 78
2020-01-16 02:00:00 14.8 20 Sudoeste 51 Sudoeste 0 1015.2 -1.3 72
2020-01-16 01:00:00 14.6 27 Sur 41 Sudoeste 0 1015.6 -1.3 78
2020-01-16 00:00:00 13.5 15 Sudoeste 22 Sudoeste 0 1016.5 -1.2 87
2020-01-15 23:00:00 9.9 0 Calma 5 Norte 0.1 1016.5 -1.7 93
2020-01-15 22:00:00 9.7 0 Calma 5 Nordeste 0 1016.9 -1.1 93
2020-01-15 21:00:00 9.2 2 Norte 7 Nordeste 0 1017.7 -0.4 93
2020-01-15 20:00:00 9.3 4 Norte 6 Nordeste 0 1018.2 0.4 93
2020-01-15 19:00:00 10.1 4 Norte 9 Nordeste 0 1018 0.2 89
2020-01-15 18:00:00 10.4 4 Norte 8 Sudoeste 0 1018.1 0.2 88
2020-01-15 17:00:00 12.2 2 Oeste 10 Sudoeste 0 1017.8 -0.4 79
2020-01-15 16:00:00 14.9 6 Sudoeste 16 Sudoeste 0 1017.8 -0.5 67
2020-01-15 15:00:00 15 8 Sudoeste 17 Sudoeste 0 1017.9 -0.5 62
2020-01-15 14:00:00 14.5 9 Sudoeste -- -- -- 1018.2 0.4 62
2020-01-15 13:00:00 13.3 15 Sudoeste 24 Sudoeste 0 1018.3 1.9 66
2020-01-15 12:00:00 13 13 Sudoeste 20 Sudoeste 0 1018.4 3.1 77
2020-01-15 11:00:00 10.9 0 Calma 10 Norte 0.1 1017.8 4.5 95
2020-01-15 10:00:00 9.3 4 Norte 9 Norte 0 1016.4 4.8 95
2020-01-15 09:00:00 10 4 Sur 9 Sur 0 1015.3 5.3 95
2020-01-15 08:00:00 10.7 0 Calma 14 Norte 0 1013.3 4.3 95
2020-01-15 07:00:00 11.4 7 Sur 16 Norte 0.3 1011.6 4.4 95
2020-01-15 06:00:00 11.6 6 Sur 24 Sudoeste 2.3 1010 4 95
2020-01-15 05:00:00 13 11 Sur 60 Sudoeste 0.1 1009 3.2 88
2020-01-15 04:00:00 13.9 22 Sudoeste 55 Sudoeste 3.7 1007.2 0.6 91
2020-01-15 03:00:00 14.7 40 Sudoeste 67 Sudoeste 0 1006 -1.2 82
2020-01-15 02:00:00 15.9 36 Sudoeste 63 Sur 0 1005.8 -1.1 72
2020-01-15 01:00:00 15.7 31 Sudoeste 59 Sudoeste 0 1006.6 -1.1 73
2020-01-15 00:00:00 15.3 27 Sudoeste 58 Sudoeste 0 1007.2 -1 74
2020-01-14 23:00:00 14.9 34 Sudoeste 68 Sudoeste 0 1006.9 -1.7 77
2020-01-14 22:00:00 14.7 30 Sudoeste 51 Sudoeste 0 1007.7 -1.2 77
2020-01-14 21:00:00 14.4 31 Sur 63 Sudoeste 0 1008.2 -0.7 78
2020-01-14 20:00:00 15.2 38 Sudoeste 62 Sur 0 1008.6 -0.4 71
2020-01-14 19:00:00 15.3 36 Sudoeste 65 Sudoeste 0 1008.9 0.1 71
2020-01-14 18:00:00 15.4 30 Sudoeste 66 Sudoeste 0 1008.9 -0.5 69
2020-01-14 17:00:00 16.1 31 Sudoeste 59 Sudoeste 0 1009 -1 68
2020-01-14 16:00:00 16.2 34 Sudoeste 64 Sudoeste 0 1008.8 -1.7 66
2020-01-14 15:00:00 15.9 28 Sudoeste 51 Sudoeste 0 1009.4 -1.7 67
2020-01-14 14:00:00 15.2 35 Sudoeste 62 Sur 0 1010 -1.3 72
2020-01-14 13:00:00 14.7 41 Sudoeste 67 Sudoeste 0 1010.5 -1.1 73
2020-01-14 12:00:00 14.5 39 Sudoeste 64 Sur 0 1011.1 -0.1 75
2020-01-14 11:00:00 14 36 Sudoeste 59 Sur 0 1011.3 0.4 79
2020-01-14 10:00:00 13.7 40 Sudoeste 63 Sudoeste 0 1011.6 0.4 80
2020-01-14 09:00:00 13.8 35 Sudoeste 57 Sudoeste 0 1011.2 0.1 84
2020-01-14 08:00:00 13.5 35 Sudoeste 53 Sudoeste 0 1010.9 -0.4 86
2020-01-14 07:00:00 13.1 31 Sudoeste 57 Sudoeste 0 1011.2 -0.2 88
2020-01-14 06:00:00 13 30 Sudoeste 49 Sudoeste 0 1011.1 -0.5 88
2020-01-14 05:00:00 13 33 Sudoeste 53 Sudoeste 0 1011.3 -1 88
2020-01-14 04:00:00 13.1 26 Sudoeste 53 Sudoeste 0 1011.4 -1.3 88
2020-01-14 03:00:00 12.9 24 Sudoeste 51 Sudoeste 0 1011.6 -1.2 89
2020-01-14 02:00:00 12.8 32 Sudoeste 54 Sudoeste 0 1012.3 -1 89
2020-01-14 01:00:00 12.6 30 Sudoeste 56 Sudoeste 0 1012.7 -0.8 89
2020-01-14 00:00:00 12.5 35 Sudoeste 53 Sudoeste 0 1012.8 -1.2 89
2020-01-13 23:00:00 12.1 35 Sudoeste 66 Sudoeste 0 1013.3 -0.8 89
2020-01-13 22:00:00 12 35 Sudoeste 59 Sudoeste 0 1013.5 -0.9 88
2020-01-13 21:00:00 11.8 40 Sudoeste 63 Sudoeste 0 1014 -0.4 86
2020-01-13 20:00:00 11.7 33 Sudoeste 60 Sudoeste 0 1014.1 -0.5 84
2020-01-13 19:00:00 11.4 39 Sudoeste 62 Sudoeste 0 1014.4 -0.7 84
2020-01-13 18:00:00 11.8 33 Sudoeste 63 Sudoeste 0 1014.4 -1.3 79
2020-01-13 17:00:00 12 40 Sudoeste 70 Sudoeste 0 1014.6 -2 75
2020-01-13 16:00:00 12.8 43 Sudoeste 74 Sur 0 1015.1 -2.9 73
2020-01-13 15:00:00 12.9 35 Sudoeste 64 Sudoeste 0 1015.7 -3.2 72
2020-01-13 14:00:00 12.4 34 Sudoeste 67 Sudoeste 0 1016.6 -2.9 75
2020-01-13 13:00:00 12 39 Sudoeste 70 Sudoeste 0 1018 -2.5 78
2020-01-13 12:00:00 11.9 34 Sudoeste 51 Sur 0 1018.9 -1.6 79
2020-01-13 11:00:00 11.9 24 Sudoeste 38 Sudoeste 0 1019.5 -1.2 80
2020-01-13 10:00:00 10.6 18 Sur 31 Sudoeste 0 1020.5 -0.6 82
2020-01-13 09:00:00 10.4 18 Sur 33 Sudoeste 0 1020.5 -1.3 86
2020-01-13 08:00:00 10.5 18 Sudoeste 36 Sudoeste 0 1020.7 -2.2 82
2020-01-13 07:00:00 10.4 17 Sudoeste 27 Sudoeste 0 1021.1 -2.6 86
2020-01-13 06:00:00 10.2 17 Sudoeste 27 Sudoeste 0 1021.8 -2.4 91
2020-01-13 05:00:00 9.8 3 Sudoeste 11 Sudoeste 0 1022.9 -2.1 93
2020-01-13 04:00:00 10.3 5 Sudoeste 15 Sudoeste 0 1023.7 -2.4 89
2020-01-13 03:00:00 10.6 10 Sudoeste 17 Sudoeste 0 1024.2 -2.8 89
2020-01-13 02:00:00 10.6 11 Sudoeste 19 Sur 0.1 1025 -2.2 90
2020-01-13 01:00:00 10.8 12 Sudoeste 19 Sudoeste 0 1026.1 -1.4 90
2020-01-13 00:00:00 10.9 7 Sudoeste 13 Sudoeste 0 1027 -0.9 91
2020-01-12 23:00:00 11.1 7 Sudoeste 16 Sudoeste 0 1027.2 -0.8 89
2020-01-12 22:00:00 11.4 8 Sudoeste 15 Sudoeste 0 1027.5 -0.6 89
2020-01-12 21:00:00 11.7 7 Sudoeste 13 Sudoeste 0 1027.9 -0.1 89
2020-01-12 20:00:00 10.6 0 Calma 2 Norte 0 1028 -0.4 93
2020-01-12 19:00:00 10.7 0 Calma 4 Noroeste 0 1028.1 -0.5 93
2020-01-12 18:00:00 11.1 0 Calma 8 Norte 0 1028 -1.1 93
2020-01-12 17:00:00 11.3 6 Nordeste 8 Nordeste 0 1028.4 -1.5 92
2020-01-12 16:00:00 11.1 4 Sudoeste 15 Sudoeste 0 1028.6 -2.2 89
2020-01-12 15:00:00 11 13 Sudoeste 19 Sudoeste 0 1029.1 -2.5 89
2020-01-12 14:00:00 11 4 Sudoeste 12 Sudoeste 0 1029.9 -1.6 86
2020-01-12 13:00:00 9.7 5 Sudoeste 17 Sudoeste 0 1030.8 -0.2 91
2020-01-12 12:00:00 8.6 7 Sudoeste 18 Sudoeste 0 1031.6 0.9 94
2020-01-12 11:00:00 8.6 10 Sudoeste 19 Sudoeste 0 1031.5 1.1 91
2020-01-12 10:00:00 8.8 4 Sudoeste 16 Sudoeste 0 1031 0.9 88
2020-01-12 09:00:00 8.7 9 Sudoeste 16 Sudoeste 0 1030.7 0.6 82
2020-01-12 08:00:00 8.6 7 Sudoeste 13 Sudoeste 0 1030.4 0.2 83
2020-01-12 07:00:00 7.9 4 Sudoeste 12 Sudoeste 0 1030.1 -0.3 89
2020-01-12 06:00:00 7.5 0 Calma 10 Sudoeste 0 1030.1 -0.2 93
2020-01-12 05:00:00 6.9 3 Oeste 9 Sudoeste 0 1030.2 -0.4 93
2020-01-12 04:00:00 6 3 Sudoeste 15 Sudoeste 0 1030.4 -0.3 94
2020-01-12 03:00:00 5.8 8 Sudoeste 12 Sudoeste 0 1030.3 -0.5 94
2020-01-12 02:00:00 5.7 2 Oeste 12 Sudoeste 0 1030.6 -0.6 95
2020-01-12 01:00:00 5.5 2 Noroeste 19 Sudoeste 0.1 1030.7 -0.4 95
2020-01-12 00:00:00 6 0 Calma 13 Sudoeste 0 1030.8 -0.2 95
2020-01-11 23:00:00 6.3 3 Noroeste 11 Sudoeste 0 1031.2 0.4 95
2020-01-11 22:00:00 7.3 9 Sudoeste 14 Sudoeste 0 1031.1 0.5 95
2020-01-11 21:00:00 7.8 4 Sudoeste 10 Sudoeste 0 1031 0.8 94
2020-01-11 20:00:00 8 0 Calma 4 Noroeste 0 1030.8 0.9 93
2020-01-11 19:00:00 8.9 4 Noroeste 15 Noroeste 0 1030.6 1.1 89
2020-01-11 18:00:00 10.9 9 Noroeste 17 Noroeste 0 1030.2 0.5 86
2020-01-11 17:00:00 11.5 8 Noroeste 21 Noroeste 0 1029.9 -0.5 80
2020-01-11 16:00:00 12.1 6 Noroeste 12 Noroeste 0 1029.5 -1.9 67
2020-01-11 15:00:00 13.4 7 Sudoeste 17 Sur 0 1029.7 -2.6 62
2020-01-11 14:00:00 12.7 8 Sudoeste 17 Sur 0 1030.4 -1.9 66
2020-01-11 13:00:00 11.1 2 Sudeste 10 Sudoeste 0 1031.4 -0.6 73
2020-01-11 12:00:00 8.6 3 Sur 9 Sur 0 1032.3 0.6 84
2020-01-11 11:00:00 5 2 Nordeste 6 Nordeste 0 1032.3 0.2 97
2020-01-11 10:00:00 2.9 3 Norte 6 Nordeste 0 1032 0.1 97
2020-01-11 09:00:00 2.3 5 Nordeste 8 Nordeste 0.1 1031.7 -0.1 97
2020-01-11 08:00:00 2.5 0 Calma 7 Nordeste 0 1032.1 0.1 97
2020-01-11 07:00:00 3.1 5 Nordeste 8 Nordeste 0 1031.9 -0.5 97
2020-01-11 06:00:00 2.8 7 Nordeste 10 Nordeste 0 1031.8 -0.8 97
2020-01-11 05:00:00 2.7 4 Nordeste 8 Nordeste 0 1032 -0.8 97
2020-01-11 04:00:00 3.1 3 Norte 8 Nordeste 0 1032.4 -1.1 97
2020-01-11 03:00:00 3.3 4 Norte 7 Norte 0 1032.6 -1.1 97
2020-01-11 02:00:00 3.9 3 Norte 6 Norte 0 1032.8 -1 96
2020-01-11 01:00:00 4.4 4 Norte 8 Nordeste 0 1033.5 0 95
2020-01-11 00:00:00 5.3 0 Calma 8 Norte 0 1033.7 0.3 95
2020-01-10 23:00:00 5.6 3 Norte 7 Norte 0 1033.8 0.9 94
2020-01-10 22:00:00 6.1 2 Norte 8 Norte 0 1033.5 1.3 93
2020-01-10 21:00:00 6.9 5 Norte 9 Nordeste 0 1033.4 1.2 91
2020-01-10 20:00:00 8.9 5 Norte 8 Norte 0 1032.9 0.9 89
2020-01-10 19:00:00 8.9 6 Norte 10 Norte 0 1032.2 0.3 89
2020-01-10 18:00:00 10.3 6 Norte 16 Norte 0 1032.2 0.1 84
2020-01-10 17:00:00 11.4 4 Noroeste 8 Norte 0.1 1032 -0.6 82
2020-01-10 16:00:00 12.5 5 Norte 11 Nordeste 0 1031.9 -1.5 69
2020-01-10 15:00:00 13.2 0 Calma 11 Norte 0 1032.1 -2.2 77
2020-01-10 14:00:00 12.6 4 Sudoeste 6 Sudoeste 0 1032.6 -0.4 79
2020-01-10 13:00:00 12.4 0 Calma 9 Este 0 1033.4 0.3 88
2020-01-10 12:00:00 10.8 6 Sudeste 8 Sudeste 0.1 1034.3 2.1 95
2020-01-10 11:00:00 8.5 0 Calma 8 Sudoeste 0 1033 1.2 97
2020-01-10 10:00:00 6.8 3 Sudoeste 6 Sudoeste 0 1033.1 1.3 97
2020-01-10 09:00:00 7.3 0 Calma 9 Sudoeste 0 1032.2 1.2 97
2020-01-10 08:00:00 7.2 4 Sudoeste 8 Sudoeste 0.1 1031.8 1.5 97
2020-01-10 07:00:00 8.2 5 Este 12 Este 0.1 1031.8 1.9 94
2020-01-10 06:00:00 8.2 0 Calma 9 Norte 0 1031 1.4 93
2020-01-10 05:00:00 8.5 0 Calma 9 Norte 0 1030.3 0.8 93
2020-01-10 04:00:00 9.1 5 Noroeste 12 Oeste 0 1029.9 0.7 91
2020-01-10 03:00:00 9 3 Norte 12 Noroeste 0 1029.6 0.4 88
2020-01-10 02:00:00 9.6 0 Calma 18 Norte 0.1 1029.5 0.8 87
2020-01-10 01:00:00 9.5 3 Norte 15 Sudoeste 0 1029.2 0.7 86
2020-01-10 00:00:00 9.2 0 Calma 16 Sudeste 0 1029.2 1.3 88
2020-01-09 23:00:00 9.7 6 Sur 19 Noroeste 0 1028.7 1.8 80
2020-01-09 22:00:00 10.5 5 Norte 20 Nordeste 0 1028.5 2.2 84
2020-01-09 21:00:00 10.7 4 Norte 19 Nordeste 0 1027.9 2.3 84
2020-01-09 20:00:00 9.5 4 Sudeste 18 Nordeste 0.1 1026.9 1.8 89
2020-01-09 19:00:00 11.4 4 Sudeste 21 Norte 0 1026.3 1.7 82
2020-01-09 18:00:00 11.4 5 Norte 20 Este 0 1025.6 1.7 80
2020-01-09 17:00:00 12 6 Norte 23 Nordeste 0 1025.1 1.8 72
2020-01-09 16:00:00 13 7 Nordeste 26 Nordeste 0.1 1024.6 2.4 77
2020-01-09 15:00:00 12.3 9 Sur 31 Sur 0 1023.9 1.9 86
2020-01-09 14:00:00 11.8 8 Sudeste 37 Norte 0.3 1023.3 2.4 88
2020-01-09 13:00:00 12.3 12 Sur 41 Sur 1.1 1022.2 1.5 92
2020-01-09 12:00:00 14.1 13 Sur 35 Sudoeste 0.4 1022 1.1 91
2020-01-09 11:00:00 14.5 15 Sudoeste 31 Sudoeste 0 1020.9 -0.2 93
2020-01-09 10:00:00 14.3 18 Sudoeste 39 Sudoeste 0 1020.7 -1 93
2020-01-09 09:00:00 14.1 25 Sudoeste 41 Sudoeste 0.3 1020.9 -1.4 94
2020-01-09 08:00:00 14 19 Sudoeste 33 Sudoeste 0 1021.1 -1.6 94
2020-01-09 07:00:00 14 20 Sudoeste 31 Sudoeste 0 1021.7 -2.3 93
2020-01-09 06:00:00 13.9 19 Sudoeste 31 Sudoeste 0 1022.3 -1.8 94
2020-01-09 05:00:00 13.6 14 Sudoeste 24 Sudoeste 0 1022.7 -1.8 94
2020-01-09 04:00:00 13.5 14 Sudoeste 24 Sudoeste 0 1024 -1 94
2020-01-09 03:00:00 13.8 13 Sudoeste 20 Sudoeste 0 1024.1 -1.6 95
2020-01-09 02:00:00 13.6 15 Sudoeste 22 Sudoeste 0 1024.5 -1.7 95
2020-01-09 01:00:00 13.4 13 Sudoeste 24 Sudoeste 0 1025 -1.4 95
2020-01-09 00:00:00 13.9 14 Sudoeste 23 Sudoeste 0 1025.7 -0.8 94
2020-01-08 23:00:00 13.8 15 Sudoeste 27 Sudoeste 0 1026.2 -0.8 94
2020-01-08 22:00:00 14.2 12 Sudoeste 19 Sudoeste 0 1026.4 -0.9 94
2020-01-08 21:00:00 14.3 13 Sudoeste 19 Sudoeste 0 1026.5 -0.6 94
2020-01-08 20:00:00 14.4 5 Sudoeste 13 Sudoeste 0 1027 -0.1 94
2020-01-08 19:00:00 14.6 6 Sudoeste 17 Sudoeste 0 1027.3 0.2 94
2020-01-08 18:00:00 15.2 8 Sudoeste 20 Sudoeste 0 1027.1 -0.3 93
2020-01-08 17:00:00 15.2 6 Sudoeste 15 Sur 0 1027.1 -0.9 93
2020-01-08 16:00:00 15.4 4 Sudoeste 15 Sudoeste 0 1027.1 -2 93
2020-01-08 15:00:00 15.4 9 Sudoeste 15 Sudoeste 0 1027.4 -2.5 93
2020-01-08 14:00:00 14.8 9 Sudoeste 15 Sudoeste 0.1 1028 -2.1 95
2020-01-08 13:00:00 13.3 6 Sudoeste 15 Sudoeste 0 1029.1 -0.6 95
2020-01-08 12:00:00 12.7 0 Calma 7 Sur 0 1029.9 0.4 95
2020-01-08 11:00:00 12.5 0 Calma 5 Norte 0 1030.1 0.6 95
2020-01-08 10:00:00 12.3 0 Calma 3 Norte 0 1029.7 0.4 95
2020-01-08 09:00:00 12.5 2 Sudoeste 12 Sudoeste 0 1029.5 0 95
2020-01-08 08:00:00 12.4 6 Sudoeste 14 Oeste 0 1029.5 -0.3 95
2020-01-08 07:00:00 12.4 6 Oeste 17 Oeste 0 1029.3 -0.7 95
2020-01-08 06:00:00 12 7 Oeste 18 Sudoeste 0 1029.5 -0.5 95
2020-01-08 05:00:00 12.1 8 Sudoeste 21 Sudoeste 0 1029.8 -0.3 95
2020-01-08 04:00:00 12.1 8 Sudoeste 14 Sudoeste 0 1030 -0.6 95
2020-01-08 03:00:00 11.7 6 Sudoeste 15 Sudoeste 0 1030 -0.9 95
2020-01-08 02:00:00 11.5 8 Sudoeste 16 Sudoeste 0 1030.1 -0.7 95
2020-01-08 01:00:00 11.4 11 Sudoeste 16 Sudoeste 0.1 1030.6 -0.3 95
2020-01-08 00:00:00 11.5 5 Sudoeste 17 Sudoeste 0.2 1030.9 0 94
2020-01-07 23:00:00 12.3 12 Sudoeste 18 Sudoeste 0 1030.8 -0.1 88
2020-01-07 22:00:00 12.1 9 Sudoeste 17 Sudoeste 0 1030.9 0.3 87
2020-01-07 21:00:00 12 9 Sudoeste 16 Sudoeste 0 1030.9 0.4 87
2020-01-07 20:00:00 11.9 3 Oeste 18 Sudoeste 0 1030.9 0.7 87
2020-01-07 19:00:00 12.3 7 Sudoeste 18 Sur 0 1030.6 0.5 86
2020-01-07 18:00:00 12.9 4 Oeste 18 Sudoeste 0 1030.5 0.1 83
2020-01-07 17:00:00 13.5 8 Sudoeste 17 Sudoeste 0 1030.2 -0.9 80
2020-01-07 16:00:00 13.9 12 Sudoeste 16 Sudoeste 0 1030.1 -- 77
2020-01-07 15:00:00 14.1 8 Sudoeste 13 Sudoeste 0 1030.4 -- 75
2020-01-07 14:00:00 13 10 Sudoeste 15 Sudoeste 0 1031.1 -- 78
2020-01-07 13:00:00 -- -- -- -- -- -- -- -- --
2020-01-07 12:00:00 -- -- -- -- -- -- -- -- --
2020-01-07 11:00:00 -- -- -- -- -- -- -- -- --
2020-01-07 10:00:00 -- -- -- -- -- -- -- -- --
2020-01-07 09:00:00 -- -- -- -- -- -- -- -- --
2020-01-07 08:00:00 -- -- -- -- -- -- -- -- --
2020-01-07 07:00:00 -- -- -- -- -- -- -- -- --
2020-01-07 06:00:00 -- -- -- -- -- -- -- -- --
2020-01-07 05:00:00 -- -- -- -- -- -- -- -- --
2020-01-07 04:00:00 -- -- -- -- -- -- -- -- --
2020-01-07 03:00:00 -- -- -- -- -- -- -- -- --
2020-01-07 02:00:00 -- -- -- -- -- -- -- -- --
2020-01-07 01:00:00 -- -- -- -- -- -- -- -- --
2020-01-07 00:00:00 -- -- -- -- -- -- -- -- --
2020-01-06 23:00:00 -- -- -- -- -- -- -- -- --
2020-01-06 22:00:00 -- -- -- -- -- -- -- -- --
2020-01-06 21:00:00 -- -- -- -- -- -- -- -- --
2020-01-06 20:00:00 -- -- -- -- -- -- -- -- --
2020-01-06 19:00:00 -- -- -- -- -- -- -- -- --
2020-01-06 18:00:00 -- -- -- -- -- -- -- -- --
2020-01-06 17:00:00 -- -- -- -- -- -- -- -- --
2020-01-06 16:00:00 -- -- -- -- -- -- -- -- --
2020-01-06 15:00:00 -- -- -- -- -- -- -- -- --
2020-01-06 14:00:00 -- -- -- -- -- -- -- -- --
2020-01-06 13:00:00 -- -- -- -- -- -- -- -- --
2020-01-06 12:00:00 -- -- -- -- -- -- -- -- --
2020-01-06 11:00:00 -- -- -- -- -- -- -- -- --
2020-01-06 10:00:00 -- -- -- -- -- -- -- -- --